Time;durP1;ratioP1;P1;durP2;ratioP2;P2;SDS_P1;SDS_P2;PMS_P1;PMS_P2;Temp;Humidity;BMP_temperature;BMP_pressure;BME280_temperature;BME280_humidity;BME280_pressure;Samples;Min_cycle;Max_cycle;Signal;HPM_P1;HPM_P2
2022/06/05 00:00:56;;;;;;;7.05;6.45;;;;;;;16.47;65.27;99212.44;5003479;28;20042;-76
2022/06/05 00:03:34;;;;;;;7.28;6.68;;;;;;;16.47;65.17;99220.53;5004040;28;20036;-76
2022/06/05 00:06:13;;;;;;;7.13;6.53;;;;;;;16.43;65.19;99206.00;5002442;28;20022;-76
2022/06/05 00:09:03;;;;;;;7.25;6.55;;;;;;;16.49;64.53;99210.28;5002747;28;20026;-76
2022/06/05 00:11:39;;;;;;;8.07;7.28;;;;;;;16.42;64.91;99215.16;5018187;28;20041;-76
2022/06/05 00:14:05;;;;;;;8.98;6.15;;;;;;;16.40;65.01;99203.84;5000341;28;20871;-76
2022/06/05 00:16:30;;;;;;;7.75;7.15;;;;;;;16.29;65.24;99186.13;5016451;28;20037;-76
2022/06/05 00:18:56;;;;;;;7.45;6.53;;;;;;;16.21;65.35;99194.78;4988336;28;20045;-76
2022/06/05 00:21:21;;;;;;;7.90;7.13;;;;;;;16.09;65.88;99188.13;5003531;28;20032;-77
2022/06/05 00:23:47;;;;;;;7.20;6.60;;;;;;;16.24;65.42;99190.75;5005655;28;20037;-76
2022/06/05 00:26:24;;;;;;;7.18;6.03;;;;;;;16.13;65.21;99165.75;5006753;28;20034;-76
2022/06/05 00:29:02;;;;;;;7.40;6.80;;;;;;;16.24;65.63;99175.41;5010085;28;20079;-77
2022/06/05 00:31:34;;;;;;;7.53;6.47;;;;;;;16.15;65.87;99173.53;5008863;28;20704;-76
2022/06/05 00:33:59;;;;;;;7.20;6.60;;;;;;;16.15;65.86;99174.34;5008049;28;20056;-76
2022/06/05 00:36:45;;;;;;;7.30;6.63;;;;;;;16.03;65.58;99181.94;5005947;28;20493;-77
2022/06/05 00:39:26;;;;;;;7.20;6.70;;;;;;;16.06;65.41;99181.41;5008659;28;20156;-76
2022/06/05 00:42:08;;;;;;;7.25;6.65;;;;;;;15.96;65.81;99181.44;5005920;28;20025;-76
2022/06/05 00:44:36;;;;;;;7.20;6.60;;;;;;;15.96;66.15;99181.44;5020891;28;20038;-76
2022/06/05 00:47:03;;;;;;;9.60;6.95;;;;;;;15.83;66.16;99163.19;5003523;28;20108;-76
2022/06/05 00:49:38;;;;;;;7.68;6.97;;;;;;;15.89;66.07;99161.28;5008532;28;20025;-76
2022/06/05 00:52:06;;;;;;;8.20;7.43;;;;;;;15.89;66.16;99172.03;5003848;28;20034;-76
2022/06/05 00:54:31;;;;;;;6.88;6.28;;;;;;;15.88;66.15;99171.22;5005439;28;20022;-77
2022/06/05 00:56:57;;;;;;;7.35;6.65;;;;;;;15.82;65.87;99169.63;5006298;28;20394;-76
2022/06/05 00:59:23;;;;;;;8.48;6.53;;;;;;;15.89;65.62;99159.38;5009441;28;20022;-76
2022/06/05 01:01:50;;;;;;;8.00;6.13;;;;;;;15.86;66.10;99162.63;5009068;28;20068;-76
2022/06/05 01:04:17;;;;;;;7.80;6.70;;;;;;;15.75;66.72;99148.41;5007796;28;20026;-76
2022/06/05 01:06:42;;;;;;;7.88;7.05;;;;;;;15.77;66.21;99164.25;4986923;28;20449;-76
2022/06/05 01:09:08;;;;;;;8.75;7.40;;;;;;;15.66;66.57;99154.63;5009142;28;20038;-76
2022/06/05 01:11:50;;;;;;;7.97;7.28;;;;;;;15.66;66.40;99163.50;5005059;28;20045;-76
2022/06/05 01:14:33;;;;;;;7.63;7.03;;;;;;;15.57;66.56;99148.19;5007483;28;20105;-77
2022/06/05 01:17:17;;;;;;;7.53;6.82;;;;;;;15.52;66.87;99140.13;5004500;28;20037;-76
2022/06/05 01:19:55;;;;;;;7.93;7.22;;;;;;;15.51;66.54;99151.97;5008539;28;20092;-76
2022/06/05 01:23:01;;;;;;;8.10;6.65;;;;;;;15.55;66.79;99169.97;5005140;28;20439;-76
2022/06/05 01:25:36;;;;;;;6.97;6.43;;;;;;;15.51;66.63;99165.41;5007514;28;20021;-76
2022/06/05 01:28:09;;;;;;;7.35;6.63;;;;;;;15.33;67.25;99150.63;5006991;28;20049;-76
2022/06/05 01:31:00;;;;;;;7.57;6.88;;;;;;;15.36;67.33;99151.97;4995686;28;20068;-76
2022/06/05 01:33:27;;;;;;;8.00;7.20;;;;;;;15.47;66.83;99167.03;5007735;28;20469;-76
2022/06/05 01:35:54;;;;;;;7.00;6.28;;;;;;;15.54;66.27;99164.88;5003579;28;20085;-76
2022/06/05 01:38:29;;;;;;;11.43;6.88;;;;;;;15.45;66.42;99150.38;5006082;28;20061;-76
2022/06/05 01:40:59;;;;;;;10.57;7.20;;;;;;;15.55;66.38;99153.03;5002496;28;20029;-76
2022/06/05 01:43:31;;;;;;;8.43;7.45;;;;;;;15.40;66.92;99150.34;5004485;28;20038;-76
2022/06/05 01:46:09;;;;;;;7.85;7.10;;;;;;;15.37;66.97;99145.50;5007455;28;20036;-76
2022/06/05 01:48:40;;;;;;;7.53;6.82;;;;;;;15.36;66.82;99147.38;5004488;28;20041;-76
2022/06/05 01:51:13;;;;;;;7.88;7.18;;;;;;;15.31;67.11;99141.22;5005461;28;20037;-76
2022/06/05 01:53:44;;;;;;;6.78;6.18;;;;;;;15.30;67.14;99137.72;5007654;28;20026;-77
2022/06/05 01:56:28;;;;;;;7.63;6.88;;;;;;;15.40;66.86;99129.63;5008930;28;20050;-76
2022/06/05 01:59:05;;;;;;;8.25;7.03;;;;;;;15.31;67.16;99141.22;5007205;28;20112;-76
2022/06/05 02:01:38;;;;;;;7.15;6.45;;;;;;;15.33;67.11;99136.38;5008640;28;20538;-76
2022/06/05 02:04:15;;;;;;;8.23;7.53;;;;;;;15.25;67.17;99139.59;4990311;28;20502;-76
2022/06/05 02:06:53;;;;;;;8.63;6.60;;;;;;;15.11;67.15;99128.63;5008510;28;20030;-76
2022/06/05 02:09:27;;;;;;;7.68;6.95;;;;;;;15.11;67.69;99143.94;5007138;28;20072;-77
2022/06/05 02:11:53;;;;;;;7.70;7.00;;;;;;;15.09;67.60;99141.53;5006391;28;20048;-76
2022/06/05 02:14:18;;;;;;;9.55;7.65;;;;;;;14.91;67.64;99124.06;5007566;28;21724;-76
2022/06/05 02:16:44;;;;;;;8.05;7.25;;;;;;;15.00;67.78;99145.84;5006423;28;20039;-76
2022/06/05 02:19:14;;;;;;;8.30;7.38;;;;;;;15.07;67.54;99153.63;4988202;28;20033;-77
2022/06/05 02:21:40;;;;;;;8.40;6.85;;;;;;;14.96;67.37;99150.91;5006867;28;20386;-76
2022/06/05 02:24:07;;;;;;;8.43;7.45;;;;;;;15.03;67.56;99156.03;5020726;28;20040;-76
2022/06/05 02:26:33;;;;;;;7.90;7.15;;;;;;;14.93;67.73;99143.41;5001612;28;20056;-77
2022/06/05 02:29:02;;;;;;;7.90;7.20;;;;;;;15.00;67.84;99145.84;5007666;28;20030;-76
2022/06/05 02:31:59;;;;;;;7.55;6.85;;;;;;;14.99;67.55;99149.59;5021113;28;20044;-76
2022/06/05 02:34:38;;;;;;;6.97;6.38;;;;;;;14.94;67.56;99144.19;5003398;28;20030;-77
2022/06/05 02:37:22;;;;;;;7.30;6.57;;;;;;;15.04;67.09;99144.22;5000879;28;20029;-77
2022/06/05 02:39:58;;;;;;;11.02;7.32;;;;;;;14.92;67.38;99140.97;5006981;28;20033;-76
2022/06/05 02:42:31;;;;;;;9.48;7.47;;;;;;;14.84;67.79;99128.91;5007030;28;20068;-76
2022/06/05 02:45:15;;;;;;;10.30;7.43;;;;;;;14.87;67.94;99141.00;5003230;28;20049;-77
2022/06/05 02:48:03;;;;;;;9.27;7.40;;;;;;;14.86;67.96;99136.69;5003803;28;20631;-76
2022/06/05 02:50:38;;;;;;;7.82;7.05;;;;;;;14.76;67.66;99134.81;5006464;28;20030;-77
2022/06/05 02:53:07;;;;;;;7.85;7.05;;;;;;;14.73;68.04;99142.59;5000968;28;20029;-77
2022/06/05 02:55:33;;;;;;;7.20;6.57;;;;;;;14.70;68.16;99135.88;5006601;28;20450;-76
2022/06/05 02:57:58;;;;;;;7.15;6.55;;;;;;;14.78;67.81;99140.72;5006351;28;20124;-76
2022/06/05 03:00:27;;;;;;;7.15;6.55;;;;;;;14.65;68.01;99135.06;5008026;28;20367;-77
2022/06/05 03:05:38;;;;;;;8.90;7.88;;;;;;;14.64;68.08;99136.94;5004454;28;20088;-77
2022/06/05 03:08:04;;;;;;;7.57;6.93;;;;;;;14.69;68.32;99136.94;5006004;28;20372;-76
2022/06/05 03:10:30;;;;;;;6.78;6.07;;;;;;;14.61;68.43;99115.97;5002203;28;20021;-77
2022/06/05 03:12:56;;;;;;;7.97;6.85;;;;;;;14.65;68.21;99130.50;5005723;28;20481;-76
2022/06/05 03:15:21;;;;;;;7.32;6.72;;;;;;;14.87;67.44;99114.91;5006300;28;20547;-76
2022/06/05 03:17:47;;;;;;;7.72;7.03;;;;;;;14.79;67.45;99112.75;5006958;28;20045;-76
2022/06/05 03:20:14;;;;;;;7.75;6.80;;;;;;;14.77;67.21;99100.66;5004629;28;20041;-76
2022/06/05 03:22:40;;;;;;;8.40;7.43;;;;;;;14.87;67.45;99101.47;5000593;28;20033;-76
2022/06/05 03:25:06;;;;;;;8.18;7.22;;;;;;;14.80;67.75;99097.44;5005221;28;20034;-76
2022/06/05 03:27:32;;;;;;;8.93;6.85;;;;;;;14.91;67.47;99091.81;5005009;28;20030;-76
2022/06/05 03:29:58;;;;;;;6.55;6.05;;;;;;;15.12;66.41;99079.13;5004019;28;20044;-76
2022/06/05 03:32:25;;;;;;;7.90;7.10;;;;;;;14.87;67.10;99082.66;5002449;28;20064;-76
2022/06/05 03:34:51;;;;;;;6.95;6.18;;;;;;;14.86;67.22;99081.06;4999989;28;20045;-76
2022/06/05 03:37:17;;;;;;;8.32;7.18;;;;;;;14.99;66.99;99077.00;5005395;28;20041;-76
2022/06/05 03:39:42;;;;;;;9.65;7.13;;;;;;;14.85;67.33;99065.22;5007330;28;20462;-76
2022/06/05 03:42:08;;;;;;;6.93;6.28;;;;;;;14.65;67.52;99055.28;5005728;28;20033;-76
2022/06/05 03:44:37;;;;;;;9.63;6.68;;;;;;;14.81;67.82;99061.44;4999826;28;20132;-77
2022/06/05 03:47:03;;;;;;;7.15;6.55;;;;;;;14.74;67.88;99059.00;5000222;28;20029;-77
2022/06/05 03:49:29;;;;;;;7.45;6.75;;;;;;;14.84;67.71;99053.66;5003821;28;20029;-76
2022/06/05 03:51:54;;;;;;;7.63;6.93;;;;;;;14.66;67.99;99037.25;5002980;28;20069;-76
2022/06/05 03:54:19;;;;;;;7.25;6.55;;;;;;;14.50;68.71;99035.66;4999034;28;20488;-76
2022/06/05 03:56:45;;;;;;;6.88;6.28;;;;;;;14.60;68.77;99057.16;5006602;28;20038;-76
2022/06/05 03:59:10;;;;;;;8.32;7.53;;;;;;;14.71;68.50;99045.31;4985210;28;20034;-76
2022/06/05 04:01:36;;;;;;;8.40;6.80;;;;;;;14.71;68.29;99039.94;5006192;28;20030;-76
2022/06/05 04:04:02;;;;;;;9.43;8.25;;;;;;;14.62;69.21;99042.38;5004664;28;20030;-76
2022/06/05 04:06:30;;;;;;;8.65;6.75;;;;;;;14.69;69.12;99034.84;5003994;28;20560;-76
2022/06/05 04:09:04;;;;;;;7.40;6.80;;;;;;;14.72;69.42;99042.34;4999502;28;20378;-76
2022/06/05 04:11:31;;;;;;;7.60;6.90;;;;;;;14.72;69.33;99028.13;4991033;28;20403;-76
2022/06/05 04:13:57;;;;;;;7.68;6.97;;;;;;;14.73;69.54;99035.91;4986658;28;20022;-76
2022/06/05 04:16:28;;;;;;;8.07;7.28;;;;;;;14.84;69.59;99044.78;5002546;28;20060;-76
2022/06/05 04:18:54;;;;;;;8.23;7.40;;;;;;;14.89;69.73;99050.97;5003585;28;20160;-76
2022/06/05 04:21:26;;;;;;;8.57;6.93;;;;;;;14.93;69.64;99035.09;5003106;28;20308;-76
2022/06/05 04:23:53;;;;;;;7.90;7.20;;;;;;;15.08;69.73;99018.09;5005856;28;20060;-76
2022/06/05 04:26:21;;;;;;;8.30;7.50;;;;;;;15.25;69.83;99021.28;5007141;28;20041;-76
2022/06/05 04:28:47;;;;;;;10.93;7.18;;;;;;;15.62;68.61;99029.75;5004138;28;20038;-76
2022/06/05 04:31:28;;;;;;;8.35;7.65;;;;;;;15.64;68.28;99024.91;5002945;28;20030;-76
2022/06/05 04:33:56;;;;;;;9.23;7.72;;;;;;;15.85;67.75;99031.81;4987465;28;20121;-76
2022/06/05 04:36:22;;;;;;;7.97;7.38;;;;;;;16.06;67.43;99032.47;4987200;28;20482;-76
2022/06/05 04:38:48;;;;;;;7.93;7.13;;;;;;;16.04;66.98;99037.34;5001279;28;20080;-77
2022/06/05 04:41:14;;;;;;;7.75;6.95;;;;;;;16.09;67.30;99042.72;5002014;28;20401;-76
2022/06/05 04:43:40;;;;;;;8.90;7.28;;;;;;;16.18;66.75;99039.16;5005063;28;20061;-76
2022/06/05 04:46:06;;;;;;;7.85;6.88;;;;;;;16.18;66.55;99039.16;5005399;28;20069;-76
2022/06/05 04:48:32;;;;;;;8.63;7.32;;;;;;;16.36;66.12;99057.31;5001613;28;20363;-76
2022/06/05 04:50:58;;;;;;;7.75;7.05;;;;;;;16.34;65.87;99056.00;5003104;28;20458;-76
2022/06/05 04:53:24;;;;;;;7.57;6.93;;;;;;;16.48;65.86;99057.78;5001413;28;20029;-77
2022/06/05 04:55:49;;;;;;;7.25;6.55;;;;;;;16.48;65.85;99068.56;4998673;28;20032;-76
2022/06/05 04:58:14;;;;;;;7.60;6.60;;;;;;;16.58;65.30;99061.53;5000440;28;20030;-76
2022/06/05 05:00:40;;;;;;;7.97;6.60;;;;;;;16.67;65.28;99059.81;4998866;28;20860;-77
2022/06/05 05:03:06;;;;;;;8.02;7.18;;;;;;;16.78;66.61;99074.81;4999080;28;20527;-76
2022/06/05 05:05:33;;;;;;;6.68;6.07;;;;;;;16.73;64.98;99070.25;5003243;28;20534;-77
2022/06/05 05:07:59;;;;;;;7.10;6.50;;;;;;;16.82;65.19;99068.56;4991878;28;20033;-76
2022/06/05 05:10:24;;;;;;;9.40;6.35;;;;;;;16.81;64.61;99055.38;5001302;28;20522;-76
2022/06/05 05:12:49;;;;;;;9.63;6.25;;;;;;;16.80;65.62;99064.53;4986484;28;20123;-76
2022/06/05 05:15:15;;;;;;;6.95;6.35;;;;;;;16.85;64.92;99064.50;4990339;28;20022;-77
2022/06/05 05:17:40;;;;;;;7.72;6.97;;;;;;;16.91;64.64;99060.66;5006105;28;20120;-76
2022/06/05 05:20:06;;;;;;;7.97;7.28;;;;;;;16.98;65.21;99071.94;5003150;28;20026;-76
2022/06/05 05:22:37;;;;;;;8.30;7.60;;;;;;;17.06;65.78;99064.03;5005727;28;20037;-76
2022/06/05 05:25:06;;;;;;;8.38;7.50;;;;;;;17.05;64.78;99050.84;5005594;28;20036;-76
2022/06/05 05:27:32;;;;;;;7.35;6.68;;;;;;;17.15;64.74;99056.91;5006609;28;20470;-76
2022/06/05 05:29:57;;;;;;;12.20;7.78;;;;;;;17.12;64.61;99062.88;4999364;28;20042;-76
2022/06/05 05:32:23;;;;;;;8.00;7.22;;;;;;;17.09;64.95;99049.97;5003370;28;20083;-76
2022/06/05 05:34:48;;;;;;;8.23;7.40;;;;;;;17.14;66.23;99057.22;4987511;28;20029;-76
2022/06/05 05:37:13;;;;;;;12.13;7.97;;;;;;;17.12;64.89;99045.91;4990811;28;20497;-76
2022/06/05 05:42:23;;;;;;;7.93;7.22;;;;;;;17.11;64.99;99020.00;5003993;28;20064;-77
2022/06/05 05:44:51;;;;;;;8.98;8.07;;;;;;;17.32;65.67;99040.28;4988436;28;20425;-77
2022/06/05 05:47:20;;;;;;;8.73;7.82;;;;;;;17.39;64.29;99031.84;5004353;28;20485;-76
2022/06/05 05:49:49;;;;;;;9.35;7.82;;;;;;;17.44;65.11;99024.50;5000847;28;20030;-76
2022/06/05 05:52:15;;;;;;;8.88;7.97;;;;;;;17.36;64.57;99032.41;5006006;28;20860;-76
2022/06/05 05:54:40;;;;;;;9.35;7.65;;;;;;;17.44;66.63;99027.19;5005411;28;20065;-76
2022/06/05 05:57:08;;;;;;;7.35;6.65;;;;;;;17.56;63.96;99019.50;5006090;28;20062;-76
2022/06/05 05:59:33;;;;;;;9.77;7.35;;;;;;;17.60;63.81;99020.56;5008422;28;20100;-76
2022/06/05 06:01:58;;;;;;;8.50;7.63;;;;;;;17.67;65.94;99010.19;5001324;28;20469;-76
2022/06/05 06:04:24;;;;;;;7.80;7.10;;;;;;;17.62;63.81;99010.28;5004431;28;20042;-76
2022/06/05 06:06:49;;;;;;;8.40;7.18;;;;;;;17.71;63.70;99005.81;4990427;28;20091;-76
2022/06/05 06:09:15;;;;;;;7.75;7.15;;;;;;;17.76;64.40;99004.94;4987818;28;20034;-76
2022/06/05 06:11:41;;;;;;;7.85;6.88;;;;;;;17.72;64.60;99006.63;5003331;28;20041;-76
2022/06/05 06:14:06;;;;;;;8.45;7.72;;;;;;;17.88;63.90;98998.03;5003039;28;20036;-76
2022/06/05 06:16:32;;;;;;;12.30;9.55;;;;;;;17.74;68.00;98994.44;5005783;28;20131;-76
2022/06/05 06:18:58;;;;;;;8.48;7.68;;;;;;;17.92;63.60;99007.16;5004590;28;20548;-76
2022/06/05 06:21:24;;;;;;;7.78;7.13;;;;;;;18.06;64.57;99006.41;5004007;28;20377;-76
2022/06/05 06:23:49;;;;;;;8.02;7.25;;;;;;;18.20;63.55;98993.75;5016447;28;20371;-77
2022/06/05 06:26:16;;;;;;;9.05;8.27;;;;;;;17.93;63.75;98995.22;5005364;28;20088;-76
2022/06/05 06:28:41;;;;;;;8.15;7.35;;;;;;;18.03;63.15;98974.56;5001961;28;20042;-76
2022/06/05 06:31:09;;;;;;;11.85;9.13;;;;;;;18.22;66.42;98995.06;5002360;28;20029;-76
2022/06/05 06:33:34;;;;;;;7.88;7.15;;;;;;;18.15;63.53;98985.75;5001682;28;20050;-76
2022/06/05 06:36:01;;;;;;;11.15;9.27;;;;;;;18.21;68.02;98979.16;4990645;28;20438;-76
2022/06/05 06:38:27;;;;;;;7.97;7.15;;;;;;;18.29;63.77;98982.00;5003657;28;20116;-75
2022/06/05 06:41:05;;;;;;;8.63;7.93;;;;;;;18.36;63.90;98978.91;5004793;28;20120;-76
2022/06/05 06:43:31;;;;;;;8.70;7.85;;;;;;;18.28;64.39;98980.38;5008594;28;20704;-76
2022/06/05 06:45:56;;;;;;;9.55;8.52;;;;;;;18.45;66.04;98974.47;5004173;28;20504;-76
2022/06/05 06:48:22;;;;;;;10.55;9.65;;;;;;;18.28;68.09;98964.16;5001856;28;20021;-76
2022/06/05 06:50:47;;;;;;;9.93;9.00;;;;;;;18.06;67.33;98965.91;5004409;28;20449;-77
2022/06/05 06:53:13;;;;;;;10.82;9.57;;;;;;;18.34;67.76;98954.09;5002430;28;20121;-77
2022/06/05 06:55:38;;;;;;;12.20;10.60;;;;;;;18.20;67.15;98964.84;5001014;28;20128;-76
2022/06/05 06:58:04;;;;;;;10.65;8.93;;;;;;;18.43;65.56;98963.13;5001759;28;20386;-77
2022/06/05 07:00:29;;;;;;;11.15;9.30;;;;;;;18.56;66.01;98963.19;5000161;28;20033;-77
2022/06/05 07:02:55;;;;;;;8.95;8.18;;;;;;;18.74;64.41;98977.72;5001617;28;20025;-76
2022/06/05 07:05:20;;;;;;;12.90;8.05;;;;;;;18.82;64.22;98966.22;5004486;28;20030;-77
2022/06/05 07:07:46;;;;;;;8.82;8.02;;;;;;;18.98;63.93;98966.75;5018543;28;20397;-77
2022/06/05 07:10:11;;;;;;;13.13;9.93;;;;;;;18.90;63.93;98956.59;5005478;28;21488;-76
2022/06/05 07:12:37;;;;;;;8.75;7.95;;;;;;;18.87;64.30;98966.13;5004272;28;20036;-77
2022/06/05 07:15:04;;;;;;;10.07;9.07;;;;;;;18.82;65.14;98950.00;5008549;28;20037;-76
2022/06/05 07:17:30;;;;;;;10.80;9.80;;;;;;;19.16;64.98;98953.09;5001845;28;20669;-76
2022/06/05 07:19:56;;;;;;;9.98;8.98;;;;;;;19.18;65.57;98947.38;5003026;28;20540;-77
2022/06/05 07:22:22;;;;;;;11.90;10.80;;;;;;;19.34;65.95;98960.34;5005858;28;20034;-76
2022/06/05 07:24:47;;;;;;;12.10;9.20;;;;;;;19.18;64.66;98937.38;5020101;28;20046;-76
2022/06/05 07:27:12;;;;;;;9.30;8.45;;;;;;;19.37;63.90;98953.53;5003916;28;20119;-77
2022/06/05 07:29:38;;;;;;;9.93;8.38;;;;;;;19.46;64.28;98951.72;5004331;28;20038;-77
2022/06/05 07:32:03;;;;;;;11.88;10.73;;;;;;;19.44;66.34;98941.16;5003664;28;20116;-77
2022/06/05 07:34:29;;;;;;;11.05;10.05;;;;;;;19.54;67.61;98944.78;5001802;28;20100;-77
2022/06/05 07:36:54;;;;;;;11.43;9.63;;;;;;;19.67;64.95;98941.22;5001388;28;20394;-76
2022/06/05 07:39:19;;;;;;;11.30;9.70;;;;;;;19.62;66.11;98908.84;5004450;28;20441;-76
2022/06/05 07:41:45;;;;;;;10.65;9.57;;;;;;;19.89;65.16;98928.53;5000148;28;20030;-77
2022/06/05 07:44:10;;;;;;;16.55;10.80;;;;;;;19.95;64.56;98912.94;4997664;28;20393;-76
2022/06/05 07:46:36;;;;;;;11.20;9.90;;;;;;;19.86;66.05;98918.28;4985385;28;20502;-77
2022/06/05 07:49:02;;;;;;;11.88;10.80;;;;;;;19.57;66.62;98923.28;5003947;28;20180;-76
2022/06/05 07:54:28;;;;;;;15.25;11.45;;;;;;;20.04;65.34;98916.50;5004631;28;20084;-77
2022/06/05 07:57:02;;;;;;;12.68;10.65;;;;;;;19.78;67.10;98912.81;5002659;28;20034;-76
2022/06/05 07:59:30;;;;;;;11.00;9.82;;;;;;;19.83;66.44;98875.53;5002453;28;20045;-77
2022/06/05 08:01:58;;;;;;;12.05;10.75;;;;;;;19.70;67.58;98900.78;4999735;28;20103;-76
2022/06/05 08:04:23;;;;;;;11.73;10.63;;;;;;;19.86;66.01;98893.09;4999361;28;20026;-77
2022/06/05 08:06:49;;;;;;;11.38;10.25;;;;;;;19.99;66.69;98903.88;4988140;28;20473;-77
2022/06/05 08:09:14;;;;;;;10.30;9.30;;;;;;;19.90;66.30;98904.91;5002751;28;20053;-76
2022/06/05 08:11:42;;;;;;;11.48;10.30;;;;;;;20.09;66.79;98902.84;5004645;28;20504;-77
2022/06/05 08:14:09;;;;;;;12.85;11.50;;;;;;;19.84;65.88;98898.84;5003970;28;20026;-76
2022/06/05 08:16:35;;;;;;;11.75;10.65;;;;;;;19.97;65.74;98886.31;4997087;28;20470;-77
2022/06/05 08:19:01;;;;;;;12.05;10.85;;;;;;;20.24;65.61;98893.56;4998213;28;20028;-76
2022/06/05 08:21:26;;;;;;;12.88;10.90;;;;;;;20.17;65.95;98886.63;4995395;28;20113;-76
2022/06/05 08:23:52;;;;;;;13.50;11.45;;;;;;;20.31;66.22;98877.66;5000794;28;20080;-76
2022/06/05 08:26:17;;;;;;;14.68;11.73;;;;;;;20.27;65.38;98877.47;4999504;28;20037;-76
2022/06/05 08:28:43;;;;;;;11.75;10.60;;;;;;;20.07;66.10;98867.13;4998060;28;20029;-76
2022/06/05 08:31:08;;;;;;;12.27;11.07;;;;;;;20.42;65.71;98874.34;5002579;28;20393;-76
2022/06/05 08:33:34;;;;;;;12.02;10.88;;;;;;;20.45;65.01;98873.72;5007892;28;20029;-77
2022/06/05 08:36:00;;;;;;;12.77;11.43;;;;;;;20.28;64.82;98873.66;5007088;28;20514;-77
2022/06/05 08:41:27;;;;;;;15.68;11.10;;;;;;;20.36;64.62;98878.31;5003448;28;20511;-76
2022/06/05 08:44:03;;;;;;;11.98;10.73;;;;;;;20.66;64.21;98880.19;5002792;28;20044;-77
2022/06/05 08:46:31;;;;;;;12.38;11.18;;;;;;;20.66;64.68;98876.72;5006971;28;20103;-77
2022/06/05 08:49:01;;;;;;;12.07;10.77;;;;;;;20.33;64.28;98894.41;5004996;28;20038;-77
2022/06/05 08:51:36;;;;;;;10.93;9.93;;;;;;;20.66;65.57;98880.19;5001540;28;20116;-76
2022/06/05 08:54:34;;;;;;;14.07;10.13;;;;;;;20.65;65.30;98866.94;5006307;28;20490;-77
2022/06/05 08:57:08;;;;;;;12.15;11.00;;;;;;;20.65;65.21;98856.91;5004386;28;20037;-76
2022/06/05 08:59:44;;;;;;;11.30;10.20;;;;;;;20.70;63.79;98847.84;5007717;28;20438;-76
2022/06/05 09:02:19;;;;;;;11.88;10.68;;;;;;;20.92;64.05;98839.59;5005563;28;20018;-77
2022/06/05 09:05:05;;;;;;;11.48;10.25;;;;;;;20.84;64.02;98841.16;5001961;28;20080;-77
2022/06/05 09:07:53;;;;;;;10.80;9.70;;;;;;;20.64;63.44;98835.53;4999161;28;20036;-76
2022/06/05 09:10:33;;;;;;;15.25;10.57;;;;;;;20.79;64.89;98826.97;5003127;28;20069;-77
2022/06/05 09:13:05;;;;;;;11.13;10.02;;;;;;;20.82;63.67;98823.59;4989760;28;20033;-77
2022/06/05 09:15:37;;;;;;;10.35;9.45;;;;;;;21.00;63.17;98822.53;4984843;28;20148;-77
2022/06/05 09:18:13;;;;;;;10.23;9.32;;;;;;;21.12;64.82;98821.94;5006214;28;20116;-77
2022/06/05 09:20:44;;;;;;;10.57;8.77;;;;;;;21.47;62.47;98818.13;5001193;28;20060;-77
2022/06/05 09:23:20;;;;;;;9.98;8.95;;;;;;;21.22;62.04;98808.06;5006910;28;20066;-77
2022/06/05 09:26:05;;;;;;;10.55;9.13;;;;;;;21.18;62.40;98793.53;5008702;28;20605;-77
2022/06/05 09:28:54;;;;;;;12.10;9.38;;;;;;;21.65;62.34;98793.34;5004404;28;20034;-77
2022/06/05 09:31:56;;;;;;;9.57;8.55;;;;;;;21.82;61.94;98797.16;5003262;28;20034;-77
2022/06/05 09:34:47;;;;;;;9.90;8.98;;;;;;;21.81;62.24;98780.06;5005433;28;20038;-77
2022/06/05 09:37:51;;;;;;;8.63;7.90;;;;;;;22.25;61.62;98779.63;5002469;28;20049;-77
2022/06/05 09:40:27;;;;;;;8.73;7.93;;;;;;;22.31;60.30;98770.16;4997394;28;20099;-77
2022/06/05 09:43:01;;;;;;;10.82;8.30;;;;;;;22.46;59.85;98768.00;5005382;28;20095;-78
2022/06/05 09:45:53;;;;;;;9.68;8.68;;;;;;;22.41;60.45;98758.09;5015389;28;20037;-77
2022/06/05 09:48:18;;;;;;;9.05;8.15;;;;;;;22.86;60.32;98758.34;5006076;28;20029;-77
2022/06/05 09:50:43;;;;;;;8.13;7.32;;;;;;;23.01;59.45;98752.31;5005973;28;20036;-77
2022/06/05 09:53:17;;;;;;;9.63;7.22;;;;;;;22.95;58.62;98738.13;5005331;28;20411;-77
2022/06/05 09:56:05;;;;;;;8.63;7.82;;;;;;;22.78;58.02;98724.59;5002479;28;20042;-77
2022/06/05 09:58:43;;;;;;;9.15;8.30;;;;;;;22.46;59.03;98730.72;5007943;28;20029;-77
2022/06/05 10:01:25;;;;;;;8.45;7.22;;;;;;;22.86;58.97;98736.59;5000701;28;20520;-77
2022/06/05 10:03:52;;;;;;;8.80;7.65;;;;;;;22.55;58.88;98728.75;5005861;28;20040;-77
2022/06/05 10:06:42;;;;;;;41.03;8.68;;;;;;;22.49;58.97;98710.22;5007889;28;20029;-77
2022/06/05 10:09:15;;;;;;;8.43;7.63;;;;;;;22.44;59.53;98703.06;5003760;28;20033;-77
2022/06/05 10:11:46;;;;;;;8.68;7.88;;;;;;;22.43;59.76;98715.06;5005004;28;20052;-77
2022/06/05 10:14:27;;;;;;;8.95;8.00;;;;;;;23.01;59.17;98722.38;5016675;28;20547;-76
2022/06/05 10:17:06;;;;;;;8.40;7.70;;;;;;;22.59;58.93;98709.81;5006367;28;20050;-77
2022/06/05 10:19:43;;;;;;;8.95;7.43;;;;;;;22.95;59.36;98719.06;5008409;28;20037;-77
2022/06/05 10:22:19;;;;;;;9.15;8.25;;;;;;;23.47;58.02;98711.25;5009537;28;20514;-77
2022/06/05 10:24:59;;;;;;;8.23;7.35;;;;;;;23.42;57.33;98707.94;5008339;28;20065;-77
2022/06/05 10:27:26;;;;;;;8.68;7.88;;;;;;;23.54;57.34;98706.06;5001738;28;20064;-77
2022/06/05 10:29:56;;;;;;;8.30;7.60;;;;;;;23.83;57.05;98691.44;5001209;28;20660;-78
2022/06/05 10:32:41;;;;;;;10.25;9.23;;;;;;;23.45;56.85;98688.19;5000044;28;20549;-77
2022/06/05 10:35:19;;;;;;;8.37;7.57;;;;;;;23.40;57.00;98689.19;4992342;28;20022;-77
2022/06/05 10:37:56;;;;;;;7.78;7.20;;;;;;;23.80;56.58;98692.13;5021938;28;20333;-77
2022/06/05 10:40:32;;;;;;;7.68;6.72;;;;;;;23.73;55.87;98695.41;4999915;28;21069;-77
2022/06/05 10:43:01;;;;;;;9.50;7.90;;;;;;;23.21;57.74;98702.50;5001361;28;20041;-77
2022/06/05 10:45:39;;;;;;;8.00;7.20;;;;;;;23.55;56.42;98690.47;5005763;28;20402;-77
2022/06/05 10:48:20;;;;;;;8.85;7.07;;;;;;;23.98;55.63;98704.44;4999660;28;20143;-77
2022/06/05 10:50:57;;;;;;;7.65;6.95;;;;;;;23.76;56.02;98700.19;5005571;28;20121;-77
2022/06/05 10:53:36;;;;;;;9.52;7.30;;;;;;;23.48;56.14;98707.38;5006406;28;20402;-77
2022/06/05 10:56:07;;;;;;;7.70;7.05;;;;;;;23.50;55.31;98723.41;5021891;28;20034;-77
2022/06/05 10:58:40;;;;;;;7.00;6.38;;;;;;;23.54;55.85;98705.25;5004080;28;20034;-77
2022/06/05 11:01:46;;;;;;;8.02;6.80;;;;;;;23.74;55.87;98712.59;5009247;28;20029;-78
2022/06/05 11:04:49;;;;;;;6.38;5.97;;;;;;;23.62;56.46;98715.25;4950404;28;20789;-77
2022/06/05 11:07:56;;;;;;;7.30;6.65;;;;;;;23.69;55.59;98710.88;5003026;28;20032;-78
2022/06/05 11:13:50;;;;;;;8.15;6.95;;;;;;;23.76;56.55;98711.09;5005570;28;20029;-78
2022/06/05 11:16:22;;;;;;;9.55;6.55;;;;;;;23.72;56.83;98707.44;5020904;28;20037;-77
2022/06/05 11:19:10;;;;;;;7.70;7.00;;;;;;;23.43;55.78;98702.16;5021581;28;20030;-78
2022/06/05 11:21:37;;;;;;;7.53;6.22;;;;;;;23.42;55.89;98705.19;5005509;28;20394;-78
2022/06/05 11:24:09;;;;;;;6.75;6.07;;;;;;;23.56;56.31;98703.78;5000816;28;20053;-78
2022/06/05 11:26:56;;;;;;;9.95;6.68;;;;;;;23.54;56.68;98699.81;5005280;28;20662;-77
2022/06/05 11:29:43;;;;;;;7.70;7.10;;;;;;;23.44;57.88;98690.13;5002090;28;20117;-77
2022/06/05 11:32:25;;;;;;;11.25;7.68;;;;;;;23.02;58.17;98702.97;5021666;28;20491;-77
2022/06/05 11:35:11;;;;;;;8.60;7.15;;;;;;;23.09;57.53;98699.72;5001704;28;20033;-76
2022/06/05 11:38:17;;;;;;;13.88;7.95;;;;;;;22.76;57.85;98696.16;5014270;28;20075;-77
2022/06/05 11:40:48;;;;;;;9.27;7.35;;;;;;;23.08;58.25;98687.25;5006656;28;20034;-76
2022/06/05 11:43:36;;;;;;;7.90;7.15;;;;;;;23.06;58.28;98689.50;5008871;28;20415;-77
2022/06/05 11:46:16;;;;;;;8.15;7.45;;;;;;;23.00;58.28;98696.25;5002063;28;20029;-77
2022/06/05 11:48:41;;;;;;;10.82;7.95;;;;;;;22.99;59.09;98683.78;5021007;28;20543;-77
2022/06/05 11:51:21;;;;;;;8.40;7.68;;;;;;;22.91;59.72;98679.22;5002249;28;20033;-77
2022/06/05 11:53:55;;;;;;;24.23;8.43;;;;;;;22.86;59.80;98684.88;5005192;28;20033;-76
2022/06/05 11:56:34;;;;;;;62.17;12.88;;;;;;;22.91;61.03;98677.28;5001457;28;20022;-77
2022/06/05 11:59:39;;;;;;;16.55;7.90;;;;;;;22.94;60.77;98675.81;5003975;28;20042;-77
2022/06/05 12:02:07;;;;;;;9.43;8.55;;;;;;;22.96;61.62;98677.09;4997313;28;20057;-77
2022/06/05 12:04:56;;;;;;;10.02;8.63;;;;;;;22.88;61.48;98685.31;5000575;28;20536;-77